createdAt,value
2022-12-08T00:01:32.334Z,8.77
2022-12-08T00:04:00.998Z,8.32
2022-12-08T00:06:48.789Z,8.32
2022-12-08T00:09:23.472Z,8.27
2022-12-08T00:11:59.159Z,8.55
2022-12-08T00:14:30.341Z,8.48
2022-12-08T00:17:00.030Z,8.15
2022-12-08T00:19:28.807Z,8.43
2022-12-08T00:21:59.056Z,8.18
2022-12-08T00:24:33.305Z,8.45
2022-12-08T00:27:01.071Z,7.45
2022-12-08T00:29:29.335Z,7.82
2022-12-08T00:31:57.253Z,8.20
2022-12-08T00:34:25.237Z,7.93
2022-12-08T00:36:53.033Z,7.88
2022-12-08T00:39:21.089Z,7.97
2022-12-08T00:42:19.508Z,7.82
2022-12-08T00:44:48.034Z,7.15
2022-12-08T00:47:19.805Z,7.47
2022-12-08T00:49:50.093Z,7.70
2022-12-08T00:52:17.833Z,7.97
2022-12-08T00:54:45.599Z,8.00
2022-12-08T00:57:14.803Z,6.93
2022-12-08T00:59:42.629Z,7.90
2022-12-08T01:02:10.426Z,7.32
2022-12-08T01:04:40.628Z,7.47
2022-12-08T01:07:08.692Z,7.43
2022-12-08T01:09:36.588Z,7.03
2022-12-08T01:12:05.448Z,7.50
2022-12-08T01:14:34.736Z,7.95
2022-12-08T01:17:02.595Z,6.80
2022-12-08T01:19:31.020Z,7.25
2022-12-08T01:21:58.814Z,8.25
2022-12-08T01:24:26.729Z,8.02
2022-12-08T01:26:54.487Z,8.52
2022-12-08T01:29:22.285Z,8.30
2022-12-08T01:31:51.414Z,8.63
2022-12-08T01:34:19.218Z,8.63
2022-12-08T01:36:48.033Z,9.95
2022-12-08T01:39:18.163Z,9.35
2022-12-08T01:41:48.024Z,10.10
2022-12-08T01:44:55.106Z,10.07
2022-12-08T01:47:31.152Z,9.63
2022-12-08T01:49:59.527Z,9.85
2022-12-08T01:52:33.624Z,10.25
2022-12-08T01:55:04.880Z,10.20
2022-12-08T01:57:38.483Z,9.60
2022-12-08T02:00:09.767Z,9.77
2022-12-08T02:02:46.780Z,9.05
2022-12-08T02:05:15.152Z,9.38
2022-12-08T02:07:44.064Z,10.13
2022-12-08T02:10:15.129Z,9.32
2022-12-08T02:12:43.222Z,9.48
2022-12-08T02:15:14.859Z,9.02
2022-12-08T02:17:55.966Z,9.85
2022-12-08T02:20:37.664Z,9.45
2022-12-08T02:23:11.678Z,9.13
2022-12-08T02:25:47.849Z,9.02
2022-12-08T02:28:38.483Z,9.18
2022-12-08T02:31:18.662Z,9.07
2022-12-08T02:34:19.244Z,9.10
2022-12-08T02:37:09.226Z,9.45
2022-12-08T02:39:43.886Z,8.60
2022-12-08T02:42:21.732Z,8.23
2022-12-08T02:44:56.575Z,7.88
2022-12-08T02:47:27.490Z,8.55
2022-12-08T02:49:56.489Z,7.25
2022-12-08T02:52:43.225Z,7.22
2022-12-08T02:55:20.281Z,7.57
2022-12-08T02:58:18.134Z,7.38
2022-12-08T03:01:03.693Z,7.10
2022-12-08T03:03:42.608Z,6.63
2022-12-08T03:06:21.540Z,7.50
2022-12-08T03:08:56.391Z,7.30
2022-12-08T03:11:31.622Z,6.88
2022-12-08T03:14:02.840Z,7.13
2022-12-08T03:16:33.489Z,7.40
2022-12-08T03:19:11.714Z,7.25
2022-12-08T03:21:40.987Z,6.70
2022-12-08T03:24:11.765Z,7.63
2022-12-08T03:26:46.862Z,7.85
2022-12-08T03:29:15.243Z,7.47
2022-12-08T03:31:59.401Z,7.68
2022-12-08T03:34:30.905Z,7.40
2022-12-08T03:37:02.022Z,7.07
2022-12-08T03:39:31.254Z,6.93
2022-12-08T03:41:58.985Z,6.90
2022-12-08T03:44:26.932Z,6.43
2022-12-08T03:46:54.697Z,6.85
2022-12-08T03:49:22.515Z,6.93
2022-12-08T03:51:50.583Z,6.60
2022-12-08T03:54:18.526Z,7.00
2022-12-08T03:56:47.646Z,6.57
2022-12-08T03:59:15.506Z,6.30
2022-12-08T04:01:43.346Z,6.35
2022-12-08T04:04:11.517Z,6.20
2022-12-08T04:06:39.542Z,6.20
2022-12-08T04:09:07.363Z,5.93
2022-12-08T04:11:35.179Z,5.30
2022-12-08T04:14:04.477Z,5.32
2022-12-08T04:16:32.755Z,5.75
2022-12-08T04:19:00.633Z,5.50
2022-12-08T04:21:28.621Z,5.18
2022-12-08T04:24:01.018Z,5.45
2022-12-08T04:26:31.640Z,5.60
2022-12-08T04:28:59.414Z,5.53
2022-12-08T04:31:28.672Z,5.70
2022-12-08T04:33:56.589Z,5.30
2022-12-08T04:36:24.638Z,5.40
2022-12-08T04:38:52.440Z,5.45
2022-12-08T04:41:20.302Z,5.47
2022-12-08T04:43:48.044Z,5.43
2022-12-08T04:46:15.944Z,5.45
2022-12-08T04:48:45.221Z,5.78
2022-12-08T04:51:17.577Z,5.60
2022-12-08T04:53:46.958Z,5.85
2022-12-08T04:56:15.588Z,5.57
2022-12-08T04:58:46.228Z,5.38
2022-12-08T05:01:14.851Z,5.35
2022-12-08T05:03:42.976Z,5.68
2022-12-08T05:06:14.557Z,5.65
2022-12-08T05:08:42.593Z,5.65
2022-12-08T05:11:12.509Z,5.10
2022-12-08T05:13:40.710Z,5.93
2022-12-08T05:16:11.384Z,5.40
2022-12-08T05:18:40.316Z,6.07
2022-12-08T05:21:08.921Z,6.28
2022-12-08T05:23:38.517Z,5.95
2022-12-08T05:26:06.599Z,6.50
2022-12-08T05:28:42.998Z,6.38
2022-12-08T05:31:12.707Z,6.32
2022-12-08T05:33:41.544Z,6.65
2022-12-08T05:36:10.353Z,6.90
2022-12-08T05:38:39.878Z,6.80
2022-12-08T05:41:08.973Z,7.47
2022-12-08T05:43:37.413Z,8.07
2022-12-08T05:46:05.613Z,7.57
2022-12-08T05:48:33.738Z,8.25
2022-12-08T05:51:02.716Z,9.20
2022-12-08T05:53:31.867Z,8.95
2022-12-08T05:56:01.481Z,8.13
2022-12-08T05:58:30.587Z,8.52
2022-12-08T06:00:58.736Z,9.43
2022-12-08T06:03:26.938Z,9.40
2022-12-08T06:05:54.918Z,9.20
2022-12-08T06:08:22.876Z,9.20
2022-12-08T06:10:50.944Z,9.50
2022-12-08T06:13:20.127Z,10.35
2022-12-08T06:15:48.131Z,9.93
2022-12-08T06:18:15.918Z,10.30
2022-12-08T06:20:45.034Z,9.38
2022-12-08T06:23:13.355Z,10.07
2022-12-08T06:25:41.384Z,9.38
2022-12-08T06:28:09.322Z,9.25
2022-12-08T06:30:38.954Z,9.13
2022-12-08T06:33:06.839Z,9.43
2022-12-08T06:35:34.845Z,9.15
2022-12-08T06:38:02.812Z,8.80
2022-12-08T06:40:30.684Z,8.80
2022-12-08T06:42:58.658Z,8.63
2022-12-08T06:45:26.744Z,8.77
2022-12-08T06:47:55.940Z,8.15
2022-12-08T06:50:23.736Z,8.75
2022-12-08T06:53:02.779Z,8.00
2022-12-08T06:55:57.900Z,8.43
2022-12-08T06:58:21.703Z,7.40
2022-12-08T07:00:49.618Z,8.05
2022-12-08T07:03:19.053Z,7.85
2022-12-08T07:05:47.274Z,8.27
2022-12-08T07:08:15.371Z,8.15
2022-12-08T07:10:43.733Z,8.13
2022-12-08T07:13:11.644Z,8.60
2022-12-08T07:15:39.534Z,8.50
2022-12-08T07:18:07.472Z,8.82
2022-12-08T07:20:36.792Z,8.77
2022-12-08T07:23:04.709Z,8.25
2022-12-08T07:25:32.621Z,8.30
2022-12-08T07:28:00.818Z,8.52
2022-12-08T07:30:28.839Z,8.25
2022-12-08T07:32:56.921Z,8.50
2022-12-08T07:35:24.770Z,8.95
2022-12-08T07:37:54.315Z,7.93
2022-12-08T07:40:22.186Z,8.93
2022-12-08T07:42:50.061Z,8.20
2022-12-08T07:45:18.236Z,7.95
2022-12-08T07:47:46.096Z,8.30
2022-12-08T07:50:13.857Z,8.48
2022-12-08T07:52:41.632Z,7.57
2022-12-08T07:55:11.333Z,7.55
2022-12-08T07:57:39.176Z,7.15
2022-12-08T08:00:08.545Z,6.60
2022-12-08T08:02:42.770Z,7.25
2022-12-08T08:05:12.920Z,7.22
2022-12-08T08:07:43.746Z,7.15
2022-12-08T08:10:16.651Z,7.40
2022-12-08T08:12:44.557Z,7.10
2022-12-08T08:15:13.345Z,6.90
2022-12-08T08:17:42.242Z,7.10
2022-12-08T08:20:11.393Z,7.07
2022-12-08T08:22:39.168Z,7.72
2022-12-08T08:25:07.334Z,7.88
2022-12-08T08:27:36.844Z,6.65
2022-12-08T08:30:05.643Z,7.45
2022-12-08T08:32:34.721Z,7.78
2022-12-08T08:35:05.271Z,7.43
2022-12-08T08:37:33.519Z,7.65
2022-12-08T08:40:01.844Z,8.35
2022-12-08T08:42:30.196Z,8.20
2022-12-08T08:44:59.469Z,9.15
2022-12-08T08:47:27.398Z,8.60
2022-12-08T08:49:55.410Z,9.10
2022-12-08T08:52:23.327Z,8.50
2022-12-08T08:54:51.263Z,8.77
2022-12-08T08:57:25.108Z,9.65
2022-12-08T08:59:53.367Z,9.07
2022-12-08T09:02:23.027Z,10.00
2022-12-08T09:04:50.884Z,9.90
2022-12-08T09:07:18.877Z,10.02
2022-12-08T09:09:47.857Z,9.63
2022-12-08T09:12:15.856Z,9.90
2022-12-08T09:14:44.423Z,9.50
2022-12-08T09:17:12.402Z,9.57
2022-12-08T09:19:41.826Z,9.60
2022-12-08T09:22:09.760Z,8.93
2022-12-08T09:24:38.582Z,9.40
2022-12-08T09:27:06.398Z,9.73
2022-12-08T09:29:36.365Z,9.52
2022-12-08T09:32:04.649Z,8.20
2022-12-08T09:34:33.290Z,9.38
2022-12-08T09:37:02.402Z,8.30
2022-12-08T09:39:30.234Z,7.78
2022-12-08T09:42:02.173Z,8.05
2022-12-08T09:44:45.287Z,7.70
2022-12-08T09:47:30.727Z,7.20
2022-12-08T09:50:08.438Z,7.30
2022-12-08T09:55:20.986Z,6.97
2022-12-08T09:57:56.659Z,7.20
2022-12-08T10:00:25.842Z,6.72
2022-12-08T10:02:53.795Z,7.47
2022-12-08T10:05:23.950Z,6.88
2022-12-08T10:08:04.943Z,7.82
2022-12-08T10:10:40.384Z,6.53
2022-12-08T10:13:21.821Z,6.10
2022-12-08T10:15:59.979Z,6.60
2022-12-08T10:18:31.115Z,6.03
2022-12-08T10:21:06.428Z,6.00
2022-12-08T10:23:40.486Z,6.43
2022-12-08T10:26:14.775Z,6.22
2022-12-08T10:28:45.400Z,5.90
2022-12-08T10:31:22.997Z,6.32
2022-12-08T10:33:58.063Z,6.40
2022-12-08T10:36:45.921Z,6.05
2022-12-08T10:39:36.434Z,5.57
2022-12-08T10:42:10.876Z,6.28
2022-12-08T10:44:55.161Z,5.78
2022-12-08T10:47:26.752Z,5.90
2022-12-08T10:50:20.116Z,6.25
2022-12-08T10:55:24.348Z,5.47
2022-12-08T10:57:52.185Z,5.68
2022-12-08T11:00:22.892Z,6.03
2022-12-08T11:02:54.689Z,5.97
2022-12-08T11:05:29.404Z,6.70
2022-12-08T11:07:57.831Z,6.28
2022-12-08T11:10:35.475Z,6.35
2022-12-08T11:13:05.934Z,5.93
2022-12-08T11:15:41.073Z,6.28
2022-12-08T11:18:26.394Z,7.03
2022-12-08T11:21:03.705Z,6.80
2022-12-08T11:23:32.111Z,6.55
2022-12-08T11:26:08.649Z,6.32
2022-12-08T11:28:39.920Z,5.95
2022-12-08T11:31:17.507Z,6.45
2022-12-08T11:33:48.005Z,6.53
2022-12-08T11:36:17.326Z,5.97
2022-12-08T11:39:02.049Z,5.90
2022-12-08T11:41:37.032Z,5.93
2022-12-08T11:44:16.949Z,7.22
2022-12-08T11:46:53.558Z,6.20
2022-12-08T11:49:21.710Z,5.47
2022-12-08T11:51:54.717Z,5.55
2022-12-08T11:54:27.828Z,6.00
2022-12-08T11:56:59.088Z,5.90
2022-12-08T11:59:32.692Z,6.38
2022-12-08T12:02:01.963Z,5.97
2022-12-08T12:04:34.864Z,5.35
2022-12-08T12:07:41.431Z,6.05
2022-12-08T12:10:45.386Z,5.72
2022-12-08T12:13:36.192Z,6.10
2022-12-08T12:16:39.911Z,5.90
2022-12-08T12:21:45.572Z,4.95
2022-12-08T12:24:25.901Z,5.80
2022-12-08T12:26:59.705Z,6.10
2022-12-08T12:29:32.230Z,5.45
2022-12-08T12:32:04.122Z,5.65
2022-12-08T12:34:35.985Z,5.43
2022-12-08T12:37:08.834Z,5.53
2022-12-08T12:39:50.796Z,5.72
2022-12-08T12:42:38.928Z,6.53
2022-12-08T12:45:27.645Z,6.32
2022-12-08T12:48:26.493Z,5.72
2022-12-08T12:50:55.481Z,5.28
2022-12-08T12:53:49.705Z,5.20
2022-12-08T12:56:48.239Z,5.10
2022-12-08T12:59:37.296Z,5.25
2022-12-08T13:02:20.053Z,5.05
2022-12-08T13:04:58.019Z,5.53
2022-12-08T13:07:29.290Z,5.05
2022-12-08T13:09:59.945Z,5.30
2022-12-08T13:12:28.243Z,5.60
2022-12-08T13:15:03.698Z,5.38
2022-12-08T13:17:34.785Z,5.55
2022-12-08T13:20:06.326Z,6.00
2022-12-08T13:23:01.821Z,5.35
2022-12-08T13:26:14.207Z,5.18
2022-12-08T13:29:20.489Z,4.57
2022-12-08T13:31:52.198Z,5.43
2022-12-08T13:34:28.607Z,5.05
2022-12-08T13:37:03.588Z,4.90
2022-12-08T13:39:38.520Z,5.35
2022-12-08T13:42:16.805Z,5.38
2022-12-08T13:45:24.083Z,5.22
2022-12-08T13:47:59.858Z,4.82
2022-12-08T13:54:45.462Z,4.97
2022-12-08T13:59:24.255Z,4.78
2022-12-08T14:01:52.779Z,5.40
2022-12-08T14:04:42.621Z,4.80
2022-12-08T14:07:13.008Z,4.43
2022-12-08T14:09:41.456Z,4.63
2022-12-08T14:12:16.730Z,5.03
2022-12-08T14:15:03.111Z,5.13
2022-12-08T14:17:32.359Z,4.47
2022-12-08T14:20:02.004Z,4.72
2022-12-08T14:22:36.196Z,5.03
2022-12-08T14:25:06.481Z,5.30
2022-12-08T14:27:37.094Z,4.97
2022-12-08T14:30:08.258Z,5.53
2022-12-08T14:32:39.895Z,5.20
2022-12-08T14:35:21.051Z,5.35
2022-12-08T14:37:53.838Z,4.95
2022-12-08T14:40:25.413Z,5.20
2022-12-08T14:43:06.160Z,4.72
2022-12-08T14:45:35.066Z,5.13
2022-12-08T14:48:21.662Z,5.05
2022-12-08T14:51:01.796Z,4.90
2022-12-08T14:53:38.068Z,5.30
2022-12-08T14:56:10.245Z,4.70
2022-12-08T14:58:38.222Z,5.20
2022-12-08T15:01:10.483Z,5.00
2022-12-08T15:03:38.795Z,5.18
2022-12-08T15:06:09.174Z,5.05
2022-12-08T15:08:53.314Z,5.22
2022-12-08T15:11:35.634Z,4.85
2022-12-08T15:14:03.902Z,5.30
2022-12-08T15:16:38.972Z,4.93
2022-12-08T15:19:17.071Z,4.90
2022-12-08T15:21:47.307Z,5.50
2022-12-08T15:24:16.788Z,5.30
2022-12-08T15:26:46.834Z,4.88
2022-12-08T15:29:21.356Z,5.40
2022-12-08T15:31:49.571Z,5.65
2022-12-08T15:34:17.512Z,5.35
2022-12-08T15:36:45.780Z,5.45
2022-12-08T15:39:29.445Z,5.18
2022-12-08T15:41:57.420Z,4.95
2022-12-08T15:44:25.223Z,5.30
2022-12-08T15:46:54.407Z,5.13
2022-12-08T15:49:24.382Z,5.03
2022-12-08T15:52:00.592Z,5.07
2022-12-08T15:54:37.308Z,4.82
2022-12-08T15:57:35.883Z,4.82
2022-12-08T15:59:54.253Z,5.03
2022-12-08T16:02:23.043Z,5.32
2022-12-08T16:07:41.658Z,4.97
2022-12-08T16:10:18.036Z,5.03
2022-12-08T16:15:59.885Z,5.22
2022-12-08T16:18:31.233Z,5.30
2022-12-08T16:23:48.020Z,4.95
2022-12-08T16:26:49.097Z,5.07
2022-12-08T16:29:09.465Z,5.40
2022-12-08T16:31:37.647Z,5.70
2022-12-08T16:34:05.637Z,5.65
2022-12-08T16:36:33.706Z,5.13
2022-12-08T16:39:01.694Z,5.07
2022-12-08T16:41:48.245Z,5.35
2022-12-08T16:44:16.445Z,5.13
2022-12-08T16:46:44.382Z,5.82
2022-12-08T16:49:12.330Z,5.22
2022-12-08T16:51:42.745Z,4.90
2022-12-08T16:54:10.721Z,5.35
2022-12-08T16:56:40.045Z,5.13
2022-12-08T16:59:08.238Z,5.18
2022-12-08T17:01:36.452Z,5.15
2022-12-08T17:04:30.351Z,4.57
2022-12-08T17:06:53.009Z,4.68
2022-12-08T17:09:20.971Z,4.30
2022-12-08T17:11:50.264Z,4.55
2022-12-08T17:14:18.223Z,4.57
2022-12-08T17:16:46.504Z,4.53
2022-12-08T17:19:15.878Z,5.18
2022-12-08T17:21:46.295Z,5.05
2022-12-08T17:24:18.600Z,4.90
2022-12-08T17:26:51.730Z,5.03
2022-12-08T17:29:19.682Z,4.72
2022-12-08T17:31:47.526Z,5.15
2022-12-08T17:34:15.492Z,4.90
2022-12-08T17:36:43.693Z,4.90
2022-12-08T17:39:18.383Z,4.88
2022-12-08T17:41:47.642Z,5.10
2022-12-08T17:44:21.512Z,4.72
2022-12-08T17:46:52.937Z,4.95
2022-12-08T17:49:24.529Z,4.50
2022-12-08T17:51:55.105Z,4.70
2022-12-08T17:54:23.428Z,4.72
2022-12-08T17:56:51.775Z,4.53
2022-12-08T17:59:21.159Z,5.45
2022-12-08T18:01:49.143Z,5.22
2022-12-08T18:04:17.119Z,4.68
2022-12-08T18:06:45.027Z,4.78
2022-12-08T18:09:13.234Z,5.28
2022-12-08T18:11:41.493Z,5.90
2022-12-08T18:14:10.509Z,5.57
2022-12-08T18:16:41.819Z,4.85
2022-12-08T18:19:10.808Z,5.10
2022-12-08T18:21:39.451Z,4.85
2022-12-08T18:24:08.405Z,5.20
2022-12-08T18:26:36.819Z,5.00
2022-12-08T18:29:04.806Z,5.00
2022-12-08T18:31:32.767Z,4.85
2022-12-08T18:34:02.009Z,5.10
2022-12-08T18:36:29.809Z,4.78
2022-12-08T18:38:57.889Z,5.22
2022-12-08T18:41:26.901Z,5.00
2022-12-08T18:43:57.313Z,5.15
2022-12-08T18:46:25.780Z,5.00
2022-12-08T18:48:54.038Z,5.28
2022-12-08T18:51:25.315Z,5.00
2022-12-08T18:53:54.063Z,4.95
2022-12-08T18:56:24.506Z,4.80
2022-12-08T18:58:52.460Z,4.65
2022-12-08T19:01:20.639Z,5.05
2022-12-08T19:06:40.369Z,4.82
2022-12-08T19:09:09.130Z,5.47
2022-12-08T19:11:36.990Z,5.32
2022-12-08T19:14:08.686Z,5.60
2022-12-08T19:16:36.952Z,5.15
2022-12-08T19:19:05.006Z,5.68
2022-12-08T19:21:33.366Z,5.72
2022-12-08T19:24:03.374Z,5.15
2022-12-08T19:26:31.376Z,5.15
2022-12-08T19:28:59.475Z,6.20
2022-12-08T19:31:27.765Z,5.93
2022-12-08T19:33:55.726Z,5.43
2022-12-08T19:36:26.031Z,5.53
2022-12-08T19:39:15.247Z,5.53
2022-12-08T19:42:04.189Z,5.68
2022-12-08T19:44:49.308Z,5.45
2022-12-08T19:47:17.472Z,5.22
2022-12-08T19:49:46.274Z,5.75
2022-12-08T19:52:14.231Z,5.82
2022-12-08T19:54:42.316Z,6.03
2022-12-08T19:57:11.806Z,6.18
2022-12-08T19:59:39.897Z,5.85
2022-12-08T20:02:08.802Z,6.45
2022-12-08T20:04:36.802Z,6.18
2022-12-08T20:07:04.803Z,6.28
2022-12-08T20:09:32.759Z,5.90
2022-12-08T20:12:00.687Z,6.35
2022-12-08T20:14:29.924Z,6.10
2022-12-08T20:16:57.896Z,6.40
2022-12-08T20:19:25.773Z,6.70
2022-12-08T20:21:53.621Z,6.45
2022-12-08T20:24:21.759Z,7.05
2022-12-08T20:26:49.851Z,7.13
2022-12-08T20:29:18.749Z,7.00
2022-12-08T20:31:48.106Z,7.00
2022-12-08T20:34:16.764Z,7.25
2022-12-08T20:36:45.216Z,7.57
2022-12-08T20:39:15.062Z,7.72
2022-12-08T20:41:43.273Z,8.10
2022-12-08T20:44:11.370Z,7.35
2022-12-08T20:46:40.477Z,7.13
2022-12-08T20:49:12.236Z,6.72
2022-12-08T20:51:41.550Z,6.75
2022-12-08T20:54:09.683Z,6.75
2022-12-08T20:56:38.339Z,6.82
2022-12-08T20:59:08.697Z,6.95
2022-12-08T21:01:36.661Z,8.48
2022-12-08T21:04:05.051Z,7.95
2022-12-08T21:06:34.479Z,8.27
2022-12-08T21:09:02.681Z,7.60
2022-12-08T21:11:30.887Z,7.25
2022-12-08T21:13:59.109Z,7.72
2022-12-08T21:16:27.035Z,8.45
2022-12-08T21:18:55.068Z,8.35
2022-12-08T21:21:23.262Z,8.88
2022-12-08T21:23:52.699Z,10.25
2022-12-08T21:26:23.245Z,9.27
2022-12-08T21:28:51.219Z,9.10
2022-12-08T21:31:21.672Z,8.50
2022-12-08T21:33:50.221Z,7.47
2022-12-08T21:36:21.457Z,7.60
2022-12-08T21:38:50.087Z,7.03
2022-12-08T21:41:41.717Z,7.03
2022-12-08T21:44:12.237Z,7.72
2022-12-08T21:46:40.667Z,6.90
2022-12-08T21:49:08.990Z,7.63
2022-12-08T21:51:41.461Z,7.45
2022-12-08T21:54:13.574Z,7.57
2022-12-08T21:56:48.344Z,7.63
2022-12-08T21:59:16.776Z,8.18
2022-12-08T22:01:44.820Z,7.75
2022-12-08T22:04:13.690Z,8.35
2022-12-08T22:06:41.842Z,7.32
2022-12-08T22:09:13.545Z,7.88
2022-12-08T22:11:41.740Z,6.80
2022-12-08T22:14:14.899Z,7.68
2022-12-08T22:16:43.701Z,7.20
2022-12-08T22:19:12.187Z,7.32
2022-12-08T22:21:40.324Z,7.10
2022-12-08T22:24:09.002Z,7.47
2022-12-08T22:26:37.123Z,7.05
2022-12-08T22:29:04.945Z,7.75
2022-12-08T22:31:34.363Z,7.55
2022-12-08T22:34:02.397Z,7.70
2022-12-08T22:36:30.494Z,7.68
2022-12-08T22:38:58.389Z,7.78
2022-12-08T22:41:26.382Z,8.15
2022-12-08T22:43:54.259Z,8.13
2022-12-08T22:46:24.465Z,7.93
2022-12-08T22:48:55.377Z,8.10
2022-12-08T22:51:23.279Z,7.75
2022-12-08T22:53:51.457Z,8.00
2022-12-08T22:56:20.110Z,8.25
2022-12-08T22:58:47.933Z,8.32
2022-12-08T23:01:27.255Z,7.88
2022-12-08T23:03:56.856Z,8.65
2022-12-08T23:06:25.479Z,8.50
2022-12-08T23:08:54.119Z,8.85
2022-12-08T23:11:24.426Z,8.00
2022-12-08T23:13:52.657Z,8.13
2022-12-08T23:16:20.859Z,8.57
2022-12-08T23:18:48.886Z,8.38
2022-12-08T23:21:20.413Z,8.75
2022-12-08T23:23:48.449Z,8.60
2022-12-08T23:26:19.011Z,8.00
2022-12-08T23:28:47.391Z,8.18
2022-12-08T23:31:16.069Z,8.80
2022-12-08T23:33:44.439Z,8.40
2022-12-08T23:36:13.901Z,8.63
2022-12-08T23:38:43.769Z,8.75
2022-12-08T23:41:14.244Z,8.35
2022-12-08T23:43:45.499Z,8.57
2022-12-08T23:46:13.887Z,8.05
2022-12-08T23:48:42.161Z,8.63
2022-12-08T23:51:10.559Z,8.45
2022-12-08T23:53:39.084Z,8.35
2022-12-08T23:56:10.597Z,7.95
2022-12-08T23:58:39.346Z,8.75
